createdAt,value
2016-11-21T00:00:12.189Z,12.62
2016-11-21T00:00:52.906Z,12.56
2016-11-21T00:01:33.651Z,12.66
2016-11-21T00:02:14.325Z,12.59
2016-11-21T00:02:55.065Z,12.62
2016-11-21T00:03:35.770Z,12.56
2016-11-21T00:04:17.116Z,12.62
2016-11-21T00:04:57.893Z,12.62
2016-11-21T00:05:38.674Z,12.59
2016-11-21T00:06:19.419Z,12.59
2016-11-21T00:07:00.155Z,12.55
2016-11-21T00:07:40.850Z,12.67
2016-11-21T00:08:21.635Z,12.63
2016-11-21T00:09:02.499Z,12.63
2016-11-21T00:09:43.262Z,12.67
2016-11-21T00:10:24.071Z,12.56
2016-11-21T00:11:04.739Z,12.67
2016-11-21T00:11:45.474Z,12.69
2016-11-21T00:12:26.132Z,12.7
2016-11-21T00:13:06.843Z,12.66
2016-11-21T00:13:47.508Z,12.74
2016-11-21T00:14:28.218Z,12.67
2016-11-21T00:15:08.933Z,12.71
2016-11-21T00:15:49.638Z,12.71
2016-11-21T00:16:30.276Z,12.74
2016-11-21T00:17:10.940Z,12.7
2016-11-21T00:17:51.696Z,12.88
2016-11-21T00:18:32.429Z,12.74
2016-11-21T00:19:13.179Z,12.84
2016-11-21T00:19:54.176Z,12.76
2016-11-21T00:20:34.972Z,12.71
2016-11-21T00:21:15.675Z,12.76
2016-11-21T00:21:56.383Z,12.77
2016-11-21T00:22:37.049Z,12.8
2016-11-21T00:23:17.783Z,12.77
2016-11-21T00:23:58.552Z,12.71
2016-11-21T00:24:39.282Z,12.79
2016-11-21T00:25:20.014Z,12.81
2016-11-21T00:26:00.781Z,12.8
2016-11-21T00:26:41.572Z,12.85
2016-11-21T00:27:22.250Z,12.88
2016-11-21T00:28:03.013Z,12.84
2016-11-21T00:28:43.743Z,12.79
2016-11-21T00:29:24.455Z,12.76
2016-11-21T00:30:05.154Z,12.84
2016-11-21T00:30:45.756Z,12.77
2016-11-21T00:31:26.460Z,12.84
2016-11-21T00:32:07.114Z,12.76
2016-11-21T00:32:47.809Z,12.91
2016-11-21T00:33:28.594Z,12.87
2016-11-21T00:34:09.226Z,12.85
2016-11-21T00:34:49.953Z,12.87
2016-11-21T00:35:30.742Z,12.92
2016-11-21T00:36:11.503Z,12.84
2016-11-21T00:36:52.257Z,12.87
2016-11-21T00:37:33.029Z,12.95
2016-11-21T00:38:13.788Z,12.88
2016-11-21T00:38:54.535Z,12.94
2016-11-21T00:39:35.271Z,13.07
2016-11-21T00:40:16.001Z,13.07
2016-11-21T00:40:56.771Z,13.03
2016-11-21T00:41:37.484Z,13.07
2016-11-21T00:42:18.103Z,13.07
2016-11-21T00:42:58.830Z,13.19
2016-11-21T00:43:39.583Z,13.16
2016-11-21T00:44:20.298Z,13.04
2016-11-21T00:45:01.018Z,13.09
2016-11-21T00:45:41.756Z,13.06
2016-11-21T00:46:22.451Z,12.89
2016-11-21T00:47:03.173Z,13.03
2016-11-21T00:47:43.967Z,13.1
2016-11-21T00:48:24.678Z,13.07
2016-11-21T00:49:05.350Z,13.09
2016-11-21T00:49:45.985Z,12.96
2016-11-21T00:50:26.774Z,13.06
2016-11-21T00:51:07.607Z,13.1
2016-11-21T00:51:48.372Z,13.17
2016-11-21T00:52:29.046Z,13.14
2016-11-21T00:53:09.776Z,13.12
2016-11-21T00:53:50.477Z,13.01
2016-11-21T00:54:31.112Z,13.03
2016-11-21T00:55:11.797Z,13.04
2016-11-21T00:55:52.374Z,12.95
2016-11-21T00:56:33.046Z,13.06
2016-11-21T00:57:13.776Z,13.04
2016-11-21T00:57:54.442Z,12.98
2016-11-21T00:58:35.106Z,13.01
2016-11-21T00:59:15.741Z,12.99
2016-11-21T00:59:56.486Z,12.96
2016-11-21T01:00:37.150Z,13.09
2016-11-21T01:01:17.858Z,13.04
2016-11-21T01:01:58.708Z,12.94
2016-11-21T01:02:39.453Z,12.92
2016-11-21T01:03:20.173Z,12.91
2016-11-21T01:04:00.865Z,12.89
2016-11-21T01:04:41.596Z,12.91
2016-11-21T01:05:22.351Z,12.89
2016-11-21T01:06:03.106Z,12.91
2016-11-21T01:06:43.849Z,12.8
2016-11-21T01:07:24.598Z,12.96
2016-11-21T01:08:05.370Z,12.99
2016-11-21T01:08:46.157Z,12.99
2016-11-21T01:09:26.822Z,12.95
2016-11-21T01:10:07.532Z,13.04
2016-11-21T01:10:48.234Z,12.94
2016-11-21T01:11:29.029Z,12.88
2016-11-21T01:12:09.769Z,12.96
2016-11-21T01:12:50.551Z,12.99
2016-11-21T01:13:31.251Z,12.96
2016-11-21T01:14:11.962Z,12.94
2016-11-21T01:14:52.669Z,12.91
2016-11-21T01:15:33.382Z,12.87
2016-11-21T01:16:14.065Z,12.89
2016-11-21T01:16:54.920Z,12.94
2016-11-21T01:17:35.669Z,12.87
2016-11-21T01:18:16.389Z,12.95
2016-11-21T01:18:57.124Z,12.88
2016-11-21T01:19:37.820Z,13.04
2016-11-21T01:20:18.582Z,13.01
2016-11-21T01:20:59.398Z,13.06
2016-11-21T01:21:40.183Z,12.98
2016-11-21T01:22:20.882Z,12.95
2016-11-21T01:23:01.587Z,12.92
2016-11-21T01:23:42.245Z,12.92
2016-11-21T01:24:23.010Z,13.04
2016-11-21T01:25:03.814Z,13.01
2016-11-21T01:25:44.477Z,12.92
2016-11-21T01:26:25.230Z,13.06
2016-11-21T01:27:05.854Z,13.01
2016-11-21T01:27:46.553Z,12.92
2016-11-21T01:28:27.278Z,12.99
2016-11-21T01:29:08.050Z,12.98
2016-11-21T01:29:48.824Z,13.09
2016-11-21T01:30:29.461Z,12.95
2016-11-21T01:31:10.207Z,12.92
2016-11-21T01:31:50.909Z,13.03
2016-11-21T01:32:31.640Z,12.87
2016-11-21T01:33:12.362Z,12.92
2016-11-21T01:33:53.222Z,13.03
2016-11-21T01:34:33.949Z,13.07
2016-11-21T01:35:14.655Z,13.07
2016-11-21T01:35:55.413Z,13.03
2016-11-21T01:36:36.147Z,12.95
2016-11-21T01:37:16.932Z,12.96
2016-11-21T01:37:57.823Z,12.95
2016-11-21T01:38:38.522Z,13.04
2016-11-21T01:39:19.316Z,13.03
2016-11-21T01:39:59.907Z,13.01
2016-11-21T01:40:40.588Z,12.98
2016-11-21T01:41:21.347Z,12.91
2016-11-21T01:42:02.065Z,13.07
2016-11-21T01:42:42.743Z,13.07
2016-11-21T01:43:23.443Z,12.98
2016-11-21T01:44:04.201Z,13.06
2016-11-21T01:44:44.978Z,13.04
2016-11-21T01:45:25.748Z,13.04
2016-11-21T01:46:06.599Z,12.95
2016-11-21T01:46:47.299Z,12.91
2016-11-21T01:47:28.046Z,12.98
2016-11-21T01:48:08.695Z,13.01
2016-11-21T01:48:49.342Z,13.09
2016-11-21T01:49:30.102Z,13.04
2016-11-21T01:50:10.744Z,13.07
2016-11-21T01:50:51.493Z,13.04
2016-11-21T01:51:32.202Z,13.07
2016-11-21T01:52:12.965Z,12.99
2016-11-21T01:52:53.642Z,13.03
2016-11-21T01:53:34.332Z,13.07
2016-11-21T01:54:14.925Z,13.09
2016-11-21T01:54:55.548Z,13.07
2016-11-21T01:55:36.244Z,13.06
2016-11-21T01:56:16.916Z,13.09
2016-11-21T01:56:57.627Z,13.07
2016-11-21T01:57:38.276Z,13.04
2016-11-21T01:58:19.107Z,13.13
2016-11-21T01:58:59.846Z,13.03
2016-11-21T01:59:40.615Z,13.04
2016-11-21T02:00:21.350Z,13.07
2016-11-21T02:01:02.100Z,13.06
2016-11-21T02:01:42.733Z,13.06
2016-11-21T02:02:23.482Z,13.04
2016-11-21T02:03:04.151Z,13.09
2016-11-21T02:03:44.813Z,13.01
2016-11-21T02:04:25.549Z,12.94
2016-11-21T02:05:06.343Z,13.06
2016-11-21T02:05:47.162Z,13.07
2016-11-21T02:06:27.891Z,13.04
2016-11-21T02:07:08.661Z,13.06
2016-11-21T02:07:49.336Z,13.06
2016-11-21T02:08:30.037Z,13.03
2016-11-21T02:09:10.810Z,13.04
2016-11-21T02:09:51.542Z,13.1
2016-11-21T02:10:32.231Z,13.03
2016-11-21T02:11:12.961Z,13.12
2016-11-21T02:11:53.702Z,13.09
2016-11-21T02:12:34.352Z,12.99
2016-11-21T02:13:15.115Z,13.01
2016-11-21T02:13:55.810Z,13.01
2016-11-21T02:14:36.564Z,13.06
2016-11-21T02:15:17.335Z,12.95
2016-11-21T02:15:58.125Z,13.01
2016-11-21T02:16:38.897Z,13.12
2016-11-21T02:17:19.700Z,13.04
2016-11-21T02:18:00.399Z,13.22
2016-11-21T02:18:41.075Z,13.25
2016-11-21T02:19:21.758Z,13.16
2016-11-21T02:20:02.488Z,13.09
2016-11-21T02:20:43.161Z,13.1
2016-11-21T02:21:23.975Z,13.1
2016-11-21T02:22:04.669Z,13.03
2016-11-21T02:22:45.403Z,13.09
2016-11-21T02:23:26.142Z,13.04
2016-11-21T02:24:06.754Z,13.06
2016-11-21T02:24:47.538Z,13.09
2016-11-21T02:25:28.179Z,13.09
2016-11-21T02:26:08.827Z,13.09
2016-11-21T02:26:49.673Z,13.09
2016-11-21T02:27:30.368Z,13.07
2016-11-21T02:28:11.167Z,13.16
2016-11-21T02:28:52.005Z,13.04
2016-11-21T02:29:32.682Z,13.09
2016-11-21T02:30:13.410Z,13.07
2016-11-21T02:30:54.065Z,13.07
2016-11-21T02:31:34.694Z,13.19
2016-11-21T02:32:15.525Z,13.24
2016-11-21T02:32:57.072Z,13.25
2016-11-21T02:33:37.775Z,13.22
2016-11-21T02:34:18.426Z,13.35
2016-11-21T02:34:59.219Z,13.32
2016-11-21T02:35:39.927Z,13.41
2016-11-21T02:36:20.573Z,13.43
2016-11-21T02:37:01.199Z,13.32
2016-11-21T02:37:41.914Z,13.24
2016-11-21T02:38:22.571Z,13.5
2016-11-21T02:39:03.322Z,13.43
2016-11-21T02:39:43.993Z,13.44
2016-11-21T02:40:24.571Z,13.35
2016-11-21T02:41:05.249Z,13.43
2016-11-21T02:41:45.849Z,13.39
2016-11-21T02:42:26.434Z,13.48
2016-11-21T02:43:07.199Z,13.36
2016-11-21T02:43:47.969Z,13.5
2016-11-21T02:44:28.695Z,13.46
2016-11-21T02:45:09.691Z,13.43
2016-11-21T02:45:50.429Z,13.54
2016-11-21T02:46:31.136Z,13.43
2016-11-21T02:47:11.849Z,13.61
2016-11-21T02:47:52.570Z,13.5
2016-11-21T02:48:33.272Z,13.59
2016-11-21T02:49:13.907Z,13.54
2016-11-21T02:49:54.602Z,13.62
2016-11-21T02:50:35.321Z,13.68
2016-11-21T02:51:16.065Z,13.68
2016-11-21T02:51:56.823Z,13.63
2016-11-21T02:52:37.428Z,13.63
2016-11-21T02:53:18.171Z,13.61
2016-11-21T02:53:58.910Z,13.59
2016-11-21T02:54:39.763Z,13.55
2016-11-21T02:55:20.561Z,13.65
2016-11-21T02:56:01.288Z,13.65
2016-11-21T02:56:42.841Z,13.57
2016-11-21T02:57:23.693Z,13.61
2016-11-21T02:58:04.343Z,13.62
2016-11-21T02:58:45.113Z,13.69
2016-11-21T02:59:25.850Z,13.73
2016-11-21T03:00:06.676Z,13.62
2016-11-21T03:00:47.408Z,13.63
2016-11-21T03:01:28.077Z,13.73
2016-11-21T03:02:08.826Z,13.84
2016-11-21T03:02:49.531Z,13.72
2016-11-21T03:03:30.219Z,13.72
2016-11-21T03:04:10.958Z,13.75
2016-11-21T03:04:51.759Z,13.65
2016-11-21T03:05:32.455Z,13.65
2016-11-21T03:06:13.084Z,13.68
2016-11-21T03:06:54.035Z,13.55
2016-11-21T03:07:34.842Z,13.62
2016-11-21T03:08:15.567Z,13.68
2016-11-21T03:08:56.338Z,13.72
2016-11-21T03:09:37.066Z,13.66
2016-11-21T03:10:17.815Z,13.5
2016-11-21T03:10:58.491Z,13.47
2016-11-21T03:11:39.222Z,13.5
2016-11-21T03:12:19.909Z,13.46
2016-11-21T03:13:00.630Z,13.65
2016-11-21T03:13:41.924Z,13.51
2016-11-21T03:14:22.655Z,13.44
2016-11-21T03:15:03.372Z,13.38
2016-11-21T03:15:44.084Z,13.54
2016-11-21T03:16:24.785Z,13.46
2016-11-21T03:17:05.454Z,13.43
2016-11-21T03:17:46.142Z,13.46
2016-11-21T03:18:26.890Z,13.46
2016-11-21T03:19:07.567Z,13.39
2016-11-21T03:19:48.250Z,13.31
2016-11-21T03:20:29.119Z,13.43
2016-11-21T03:21:09.773Z,13.35
2016-11-21T03:21:50.500Z,13.39
2016-11-21T03:22:31.178Z,13.47
2016-11-21T03:23:11.971Z,13.36
2016-11-21T03:23:52.677Z,13.44
2016-11-21T03:24:33.541Z,13.32
2016-11-21T03:25:14.254Z,13.48
2016-11-21T03:25:55.649Z,13.38
2016-11-21T03:26:36.393Z,13.22
2016-11-21T03:27:17.109Z,13.39
2016-11-21T03:27:57.959Z,13.38
2016-11-21T03:28:38.657Z,13.38
2016-11-21T03:29:19.493Z,13.29
2016-11-21T03:30:00.255Z,13.24
2016-11-21T03:30:41.024Z,13.36
2016-11-21T03:31:21.752Z,13.36
2016-11-21T03:32:02.350Z,13.47
2016-11-21T03:32:42.946Z,13.47
2016-11-21T03:33:23.628Z,13.48
2016-11-21T03:34:04.445Z,13.44
2016-11-21T03:34:45.136Z,13.46
2016-11-21T03:35:26.020Z,13.48
2016-11-21T03:36:06.688Z,13.51
2016-11-21T03:36:47.382Z,13.43
2016-11-21T03:37:28.140Z,13.61
2016-11-21T03:38:08.837Z,13.53
2016-11-21T03:38:49.656Z,13.54
2016-11-21T03:39:30.343Z,13.51
2016-11-21T03:40:11.032Z,13.55
2016-11-21T03:40:51.888Z,13.65
2016-11-21T03:41:32.573Z,13.59
2016-11-21T03:42:13.255Z,13.63
2016-11-21T03:42:53.985Z,13.59
2016-11-21T03:43:34.670Z,13.63
2016-11-21T03:44:15.356Z,13.66
2016-11-21T03:44:55.993Z,13.71
2016-11-21T03:45:36.721Z,13.63
2016-11-21T03:46:17.983Z,13.79
2016-11-21T03:46:58.683Z,13.72
2016-11-21T03:47:39.376Z,13.86
2016-11-21T03:48:20.053Z,13.86
2016-11-21T03:49:00.767Z,13.83
2016-11-21T03:49:41.466Z,13.84
2016-11-21T03:50:22.219Z,13.72
2016-11-21T03:51:02.875Z,13.8
2016-11-21T03:51:43.819Z,13.87
2016-11-21T03:52:24.596Z,13.79
2016-11-21T03:53:05.363Z,13.76
2016-11-21T03:53:46.022Z,13.76
2016-11-21T03:54:26.731Z,13.79
2016-11-21T03:55:07.455Z,13.83
2016-11-21T03:55:48.157Z,13.86
2016-11-21T03:56:28.773Z,13.73
2016-11-21T03:58:21.535Z,13.94
2016-11-21T03:59:02.212Z,13.94
2016-11-21T03:59:42.924Z,13.86
2016-11-21T04:00:23.559Z,13.75
2016-11-21T04:01:04.189Z,13.8
2016-11-21T04:01:44.791Z,13.83
2016-11-21T04:02:25.428Z,13.86
2016-11-21T04:03:06.075Z,13.81
2016-11-21T04:03:46.717Z,13.84
2016-11-21T04:04:27.409Z,13.86
2016-11-21T04:05:08.077Z,13.8
2016-11-21T04:05:48.836Z,13.81
2016-11-21T04:06:29.669Z,13.86
2016-11-21T04:07:10.542Z,13.76
2016-11-21T04:07:51.185Z,13.87
2016-11-21T04:08:31.782Z,13.87
2016-11-21T04:09:12.457Z,13.84
2016-11-21T04:09:53.156Z,13.87
2016-11-21T04:10:33.973Z,13.8
2016-11-21T04:11:14.698Z,13.8
2016-11-21T04:11:55.359Z,13.94
2016-11-21T04:12:36.102Z,13.93
2016-11-21T04:13:17.021Z,13.84
2016-11-21T04:13:57.819Z,13.81
2016-11-21T04:14:38.519Z,13.72
2016-11-21T04:15:19.173Z,13.75
2016-11-21T04:15:59.862Z,13.81
2016-11-21T04:16:40.489Z,13.86
2016-11-21T04:17:21.417Z,13.75
2016-11-21T04:18:02.140Z,13.86
2016-11-21T04:18:42.730Z,13.84
2016-11-21T04:19:23.486Z,13.84
2016-11-21T04:20:04.294Z,13.79
2016-11-21T04:20:45.614Z,13.83
2016-11-21T04:21:26.371Z,13.9
2016-11-21T04:22:07.043Z,13.91
2016-11-21T04:22:47.778Z,13.83
2016-11-21T04:23:28.435Z,13.83
2016-11-21T04:24:09.206Z,13.83
2016-11-21T04:24:49.889Z,13.84
2016-11-21T04:25:30.556Z,13.81
2016-11-21T04:26:11.209Z,13.72
2016-11-21T04:26:51.884Z,13.8
2016-11-21T04:27:32.598Z,13.83
2016-11-21T04:28:13.336Z,13.79
2016-11-21T04:28:54.131Z,13.87
2016-11-21T04:29:34.771Z,13.87
2016-11-21T04:30:15.485Z,13.83
2016-11-21T04:30:56.135Z,13.79
2016-11-21T04:31:36.787Z,13.83
2016-11-21T04:32:17.508Z,13.84
2016-11-21T04:32:58.196Z,13.83
2016-11-21T04:33:38.995Z,13.8
2016-11-21T04:34:19.612Z,13.79
2016-11-21T04:35:00.314Z,13.81
2016-11-21T04:35:40.983Z,13.81
2016-11-21T04:36:21.645Z,13.62
2016-11-21T04:37:02.320Z,13.66
2016-11-21T04:37:42.954Z,13.63
2016-11-21T04:38:23.767Z,13.69
2016-11-21T04:39:04.492Z,13.65
2016-11-21T04:39:45.209Z,13.72
2016-11-21T04:40:25.915Z,13.76
2016-11-21T04:41:06.579Z,13.69
2016-11-21T04:41:47.302Z,13.62
2016-11-21T04:42:27.988Z,13.53
2016-11-21T04:43:08.665Z,13.68
2016-11-21T04:43:49.308Z,13.63
2016-11-21T04:44:29.962Z,13.66
2016-11-21T04:45:10.645Z,13.62
2016-11-21T04:45:51.235Z,13.79
2016-11-21T04:46:31.874Z,13.63
2016-11-21T04:47:12.555Z,13.76
2016-11-21T04:47:53.329Z,13.65
2016-11-21T04:48:33.969Z,13.75
2016-11-21T04:49:14.629Z,13.73
2016-11-21T04:49:55.338Z,13.62
2016-11-21T04:50:36.003Z,13.57
2016-11-21T04:51:16.728Z,13.59
2016-11-21T04:51:57.493Z,13.65
2016-11-21T04:52:38.213Z,13.63
2016-11-21T04:53:19.008Z,13.65
2016-11-21T04:53:59.760Z,13.66
2016-11-21T04:54:40.565Z,13.57
2016-11-21T04:55:21.296Z,13.65
2016-11-21T04:56:02.008Z,13.55
2016-11-21T04:56:42.721Z,13.66
2016-11-21T04:57:23.319Z,13.59
2016-11-21T04:58:04.104Z,13.69
2016-11-21T04:58:44.854Z,13.72
2016-11-21T04:59:25.548Z,13.63
2016-11-21T05:00:06.288Z,13.55
2016-11-21T05:00:47.019Z,13.61
2016-11-21T05:01:27.658Z,13.68
2016-11-21T05:02:08.362Z,13.65
2016-11-21T05:02:48.992Z,13.54
2016-11-21T05:03:29.754Z,13.63
2016-11-21T05:04:10.518Z,13.62
2016-11-21T05:04:51.341Z,13.62
2016-11-21T05:05:32.036Z,13.61
2016-11-21T05:06:12.624Z,13.71
2016-11-21T05:06:53.346Z,13.65
2016-11-21T05:07:34.194Z,13.68
2016-11-21T05:08:14.861Z,13.68
2016-11-21T05:08:55.632Z,13.65
2016-11-21T05:09:36.376Z,13.68
2016-11-21T05:10:17.067Z,13.68
2016-11-21T05:10:57.736Z,13.66
2016-11-21T05:11:38.513Z,13.59
2016-11-21T05:12:19.180Z,13.63
2016-11-21T05:12:59.808Z,13.63
2016-11-21T05:13:40.437Z,13.61
2016-11-21T05:14:21.114Z,13.71
2016-11-21T05:15:01.928Z,13.66
2016-11-21T05:15:42.745Z,13.55
2016-11-21T05:16:24.004Z,13.71
2016-11-21T05:17:04.757Z,13.54
2016-11-21T05:17:45.455Z,13.61
2016-11-21T05:18:26.123Z,13.66
2016-11-21T05:19:06.884Z,13.71
2016-11-21T05:19:47.559Z,13.69
2016-11-21T05:20:28.239Z,13.75
2016-11-21T05:21:08.931Z,13.66
2016-11-21T05:21:49.698Z,13.65
2016-11-21T05:22:30.417Z,13.66
2016-11-21T05:23:11.064Z,13.79
2016-11-21T05:23:51.787Z,13.62
2016-11-21T05:24:32.554Z,13.61
2016-11-21T05:25:13.256Z,13.63
2016-11-21T05:25:54.110Z,13.69
2016-11-21T05:26:35.738Z,13.65
2016-11-21T05:27:16.490Z,13.61
2016-11-21T05:27:57.152Z,13.65
2016-11-21T05:28:37.870Z,13.68
2016-11-21T05:29:18.504Z,13.63
2016-11-21T05:29:59.201Z,13.59
2016-11-21T05:30:40.008Z,13.63
2016-11-21T05:31:20.726Z,13.66
2016-11-21T05:32:01.446Z,13.69
2016-11-21T05:32:42.134Z,13.63
2016-11-21T05:33:22.883Z,13.79
2016-11-21T05:34:03.651Z,13.76
2016-11-21T05:34:44.361Z,13.65
2016-11-21T05:35:25.064Z,13.72
2016-11-21T05:36:05.624Z,13.62
2016-11-21T05:36:46.349Z,13.63
2016-11-21T05:37:27.081Z,13.65
2016-11-21T05:38:07.766Z,13.65
2016-11-21T05:38:48.368Z,13.68
2016-11-21T05:39:29.076Z,13.61
2016-11-21T05:40:09.750Z,13.53
2016-11-21T05:40:50.440Z,13.68
2016-11-21T05:41:31.114Z,13.62
2016-11-21T05:42:11.966Z,13.63
2016-11-21T05:42:52.755Z,13.65
2016-11-21T05:43:33.447Z,13.55
2016-11-21T05:44:14.150Z,13.59
2016-11-21T05:44:54.814Z,13.68
2016-11-21T05:45:35.616Z,13.65
2016-11-21T05:46:16.346Z,13.68
2016-11-21T05:46:57.024Z,13.61
2016-11-21T05:47:37.790Z,13.68
2016-11-21T05:48:18.366Z,13.59
2016-11-21T05:48:59.150Z,13.71
2016-11-21T05:49:39.809Z,13.69
2016-11-21T05:50:20.468Z,13.69
2016-11-21T05:51:01.131Z,13.61
2016-11-21T05:51:41.968Z,13.68
2016-11-21T05:52:22.663Z,13.79
2016-11-21T05:53:03.381Z,13.76
2016-11-21T05:53:44.037Z,13.69
2016-11-21T05:54:24.774Z,13.72
2016-11-21T05:55:05.475Z,13.72
2016-11-21T05:55:46.088Z,13.71
2016-11-21T05:56:26.879Z,13.65
2016-11-21T05:57:07.574Z,13.75
2016-11-21T05:57:48.368Z,13.8
2016-11-21T05:58:29.325Z,13.72
2016-11-21T05:59:09.999Z,13.68
2016-11-21T05:59:50.731Z,13.65
2016-11-21T06:00:31.589Z,13.65
2016-11-21T06:01:12.182Z,13.53
2016-11-21T06:01:52.854Z,13.53
2016-11-21T06:02:33.740Z,13.63
2016-11-21T06:03:14.654Z,13.57
2016-11-21T06:03:55.417Z,13.55
2016-11-21T06:04:36.142Z,13.63
2016-11-21T06:05:16.877Z,13.63
2016-11-21T06:05:57.618Z,13.62
2016-11-21T06:06:38.337Z,13.65
2016-11-21T06:07:19.039Z,13.73
2016-11-21T06:07:59.875Z,13.63
2016-11-21T06:08:40.631Z,13.68
2016-11-21T06:09:21.356Z,13.81
2016-11-21T06:10:02.149Z,13.71
2016-11-21T06:10:42.833Z,13.8
2016-11-21T06:11:23.532Z,13.66
2016-11-21T06:12:04.343Z,13.62
2016-11-21T06:12:45.115Z,13.65
2016-11-21T06:13:25.855Z,13.65
2016-11-21T06:14:06.568Z,13.63
2016-11-21T06:14:47.233Z,13.73
2016-11-21T06:15:28.074Z,13.68
2016-11-21T06:16:08.728Z,13.65
2016-11-21T06:16:49.462Z,13.68
2016-11-21T06:17:30.156Z,13.79
2016-11-21T06:18:10.911Z,13.59
2016-11-21T06:18:51.743Z,13.62
2016-11-21T06:19:32.347Z,13.62
2016-11-21T06:20:13.082Z,13.62
2016-11-21T06:20:53.897Z,13.68
2016-11-21T06:21:34.570Z,13.65
2016-11-21T06:22:15.267Z,13.61
2016-11-21T06:22:56.132Z,13.62
2016-11-21T06:23:36.903Z,13.61
2016-11-21T06:24:17.694Z,13.61
2016-11-21T06:24:58.477Z,13.66
2016-11-21T06:25:39.133Z,13.51
2016-11-21T06:26:19.897Z,13.65
2016-11-21T06:27:00.676Z,13.54
2016-11-21T06:27:41.254Z,13.66
2016-11-21T06:28:21.903Z,13.62
2016-11-21T06:29:02.625Z,13.55
2016-11-21T06:29:43.440Z,13.63
2016-11-21T06:30:24.147Z,13.57
2016-11-21T06:31:04.945Z,13.62
2016-11-21T06:31:45.702Z,13.66
2016-11-21T06:32:26.425Z,13.63
2016-11-21T06:33:07.187Z,13.61
2016-11-21T06:33:47.836Z,13.66
2016-11-21T06:34:28.581Z,13.65
2016-11-21T06:35:09.313Z,13.69
2016-11-21T06:35:50.104Z,13.63
2016-11-21T06:36:31.665Z,13.59
2016-11-21T06:37:12.450Z,13.61
2016-11-21T06:37:53.132Z,13.59
2016-11-21T06:38:33.800Z,13.55
2016-11-21T06:39:14.539Z,13.5
2016-11-21T06:39:55.220Z,13.54
2016-11-21T06:40:35.919Z,13.61
2016-11-21T06:41:16.697Z,13.55
2016-11-21T06:41:57.467Z,13.54
2016-11-21T06:42:38.243Z,13.54
2016-11-21T06:43:19.060Z,13.65
2016-11-21T06:43:59.689Z,13.54
2016-11-21T06:44:40.406Z,13.62
2016-11-21T06:45:21.065Z,13.61
2016-11-21T06:46:02.493Z,13.61
2016-11-21T06:46:43.277Z,13.41
2016-11-21T06:47:23.962Z,13.47
2016-11-21T06:48:04.690Z,13.5
2016-11-21T06:48:45.514Z,13.5
2016-11-21T06:49:26.154Z,13.48
2016-11-21T06:50:06.876Z,13.41
2016-11-21T06:50:47.584Z,13.44
2016-11-21T06:51:28.352Z,13.46
2016-11-21T06:52:09.133Z,13.41
2016-11-21T06:52:49.812Z,13.44
2016-11-21T06:53:30.497Z,13.35
2016-11-21T06:54:11.308Z,13.43
2016-11-21T06:54:52.020Z,13.38
2016-11-21T06:55:32.675Z,13.32
2016-11-21T06:56:13.402Z,13.36
2016-11-21T06:56:54.133Z,13.36
2016-11-21T06:57:34.839Z,13.31
2016-11-21T06:58:15.680Z,13.43
2016-11-21T06:58:56.326Z,13.47
2016-11-21T06:59:36.997Z,13.39
2016-11-21T07:00:17.776Z,13.41
2016-11-21T07:00:58.536Z,13.35
2016-11-21T07:01:39.204Z,13.21
2016-11-21T07:02:19.858Z,13.35
2016-11-21T07:03:00.422Z,13.22
2016-11-21T07:03:41.252Z,13.22
2016-11-21T07:04:22.065Z,13.24
2016-11-21T07:05:02.845Z,13.27
2016-11-21T07:05:43.648Z,13.22
2016-11-21T07:06:24.315Z,13.19
2016-11-21T07:07:05.012Z,13.22
2016-11-21T07:07:45.810Z,13.22
2016-11-21T07:08:26.653Z,13.1
2016-11-21T07:09:07.422Z,13.12
2016-11-21T07:09:48.084Z,13.13
2016-11-21T07:10:28.714Z,13.1
2016-11-21T07:11:09.366Z,13.14
2016-11-21T07:11:50.091Z,13.09
2016-11-21T07:12:30.775Z,13.07
2016-11-21T07:13:11.451Z,13.06
2016-11-21T07:13:52.130Z,13.03
2016-11-21T07:14:32.719Z,13.04
2016-11-21T07:15:13.401Z,13.07
2016-11-21T07:15:54.196Z,13.03
2016-11-21T07:16:34.898Z,13.06
2016-11-21T07:17:15.554Z,12.95
2016-11-21T07:17:56.170Z,13.03
2016-11-21T07:18:36.938Z,13.01
2016-11-21T07:19:17.704Z,13.09
2016-11-21T07:19:58.547Z,13.03
2016-11-21T07:20:39.214Z,13.09
2016-11-21T07:21:19.990Z,13.09
2016-11-21T07:22:00.644Z,13.06
2016-11-21T07:22:41.407Z,13.03
2016-11-21T07:23:22.246Z,13.04
2016-11-21T07:24:03.034Z,13.03
2016-11-21T07:24:43.680Z,13.09
2016-11-21T07:25:24.354Z,13.13
2016-11-21T07:26:05.138Z,13.04
2016-11-21T07:26:45.870Z,13.13
2016-11-21T07:27:26.583Z,13.07
2016-11-21T07:28:07.395Z,13.06
2016-11-21T07:28:48.079Z,13.06
2016-11-21T07:29:29.754Z,13.1
2016-11-21T07:30:09.445Z,13.06
2016-11-21T07:30:50.175Z,13.07
2016-11-21T07:31:31.683Z,13.12
2016-11-21T07:32:12.436Z,13.06
2016-11-21T07:32:53.273Z,13.07
2016-11-21T07:33:34.053Z,13.13
2016-11-21T07:34:14.875Z,13.06
2016-11-21T07:34:55.548Z,13.03
2016-11-21T07:35:36.180Z,13.06
2016-11-21T07:36:16.930Z,13.04
2016-11-21T07:36:57.739Z,13.09
2016-11-21T07:37:38.331Z,13.07
2016-11-21T07:38:19.109Z,13.04
2016-11-21T07:38:59.852Z,13.07
2016-11-21T07:39:40.586Z,13.17
2016-11-21T07:40:21.297Z,13.1
2016-11-21T07:41:02.089Z,13.13
2016-11-21T07:41:42.828Z,13.22
2016-11-21T07:42:23.530Z,13.22
2016-11-21T07:43:04.301Z,13.36
2016-11-21T07:43:45.050Z,13.16
2016-11-21T07:44:25.844Z,13.25
2016-11-21T07:45:06.604Z,13.24
2016-11-21T07:45:47.329Z,13.22
2016-11-21T07:46:28.093Z,13.35
2016-11-21T07:47:09.255Z,13.22
2016-11-21T07:47:49.455Z,13.32
2016-11-21T07:48:30.180Z,13.22
2016-11-21T07:49:10.956Z,13.32
2016-11-21T07:49:51.768Z,13.39
2016-11-21T07:50:32.497Z,13.36
2016-11-21T07:51:13.294Z,13.43
2016-11-21T07:51:54.035Z,13.39
2016-11-21T07:52:34.881Z,13.32
2016-11-21T07:53:15.599Z,13.28
2016-11-21T07:53:56.386Z,13.35
2016-11-21T07:54:37.088Z,13.41
2016-11-21T07:55:17.801Z,13.48
2016-11-21T07:55:58.469Z,13.48
2016-11-21T07:56:39.212Z,13.38
2016-11-21T07:57:19.940Z,13.32
2016-11-21T07:58:00.657Z,13.44
2016-11-21T07:58:41.380Z,13.47
2016-11-21T07:59:22.148Z,13.54
2016-11-21T08:00:02.823Z,13.47
2016-11-21T08:00:43.544Z,13.53
2016-11-21T08:01:24.219Z,13.47
2016-11-21T10:20:37.934Z,12.48
2016-11-21T10:21:18.624Z,12.54
2016-11-21T10:21:59.198Z,12.51
2016-11-21T10:22:40.648Z,12.52
2016-11-21T10:23:21.296Z,12.61
2016-11-21T10:24:01.948Z,12.54
2016-11-21T10:24:42.570Z,12.54
2016-11-21T10:25:23.266Z,12.58
2016-11-21T10:26:03.939Z,12.52
2016-11-21T10:26:44.586Z,12.52
2016-11-21T10:27:25.316Z,12.54
2016-11-21T10:28:05.936Z,12.58
2016-11-21T10:28:46.638Z,12.63
2016-11-21T10:29:27.296Z,12.62
2016-11-21T10:30:07.941Z,12.48
2016-11-21T10:30:48.539Z,12.52
2016-11-21T10:31:29.240Z,12.49
2016-11-21T10:32:09.980Z,12.59
2016-11-21T10:32:50.555Z,12.56
2016-11-21T10:33:31.164Z,12.55
2016-11-21T10:34:11.782Z,12.56
2016-11-21T10:34:52.476Z,12.55
2016-11-21T10:35:33.172Z,12.59
2016-11-21T10:36:13.825Z,12.54
2016-11-21T10:36:54.426Z,12.69
2016-11-21T10:37:35.025Z,12.51
2016-11-21T10:38:15.605Z,12.55
2016-11-21T10:38:56.409Z,12.7
2016-11-21T10:39:37.047Z,12.54
2016-11-21T10:40:17.826Z,12.55
2016-11-21T10:40:58.405Z,12.55
2016-11-21T10:41:39.046Z,12.55
2016-11-21T10:42:19.699Z,12.63
2016-11-21T10:43:00.327Z,12.66
2016-11-21T10:43:41.049Z,12.67
2016-11-21T10:44:21.807Z,12.69
2016-11-21T10:45:02.430Z,12.61
2016-11-21T10:45:43.118Z,12.69
2016-11-21T10:46:23.838Z,12.59
2016-11-21T10:47:04.480Z,12.66
2016-11-21T10:47:45.129Z,12.61
2016-11-21T10:48:25.730Z,12.62
2016-11-21T10:49:06.375Z,12.56
2016-11-21T10:49:47.290Z,12.52
2016-11-21T10:50:28.119Z,12.67
2016-11-21T10:51:08.818Z,12.66
2016-11-21T10:51:49.588Z,12.55
2016-11-21T10:52:30.166Z,12.74
2016-11-21T10:53:10.924Z,12.77
2016-11-21T10:53:51.656Z,12.84
2016-11-21T10:54:32.306Z,12.81
2016-11-21T10:55:12.941Z,12.81
2016-11-21T10:55:53.627Z,12.88
2016-11-21T10:56:34.274Z,12.79
2016-11-21T10:57:14.876Z,12.85
2016-11-21T10:57:55.481Z,12.98
2016-11-21T10:58:36.123Z,12.94
2016-11-21T10:59:16.677Z,12.88
2016-11-21T10:59:57.237Z,12.88
2016-11-21T11:00:37.905Z,12.87
2016-11-21T11:01:18.641Z,12.87
2016-11-21T11:01:59.249Z,12.87
2016-11-21T11:02:39.881Z,13.03
2016-11-21T11:03:20.545Z,12.92
2016-11-21T11:04:01.183Z,12.89
2016-11-21T11:04:41.815Z,12.98